Kelly Lake, Minnesota
Current Conditions -  °F | °C
As of 8:53 PM on Saturday 20 Dec 2014 (Local Time) from KHIB Reporting Station
Overcast Overcast  
Wind Chill: 23°   Ceiling: 600
Heat Index: 29°   Visibility: 7mi
Dew Point: 26°   Wind: 6mph
Humidity: 89%   Direction: 180°S
Pressure: 30.01"   Gusts: NA
Location:  47.4158°N, 93.0053°W
Report Text: KHIB 210253Z AUTO 18005KT 7SM OVC006 M02/M03 A3001 RMK AO2 SLP184 I3000 T10171033 56008
Loading
Personal Weather Stations






























Interactive Weather Map New forecast layout! Learn more

10-Day Weather Forecast

Advertisements
Track Severe Weather on mobile